Time;durP1;ratioP1;P1;durP2;ratioP2;P2;SDS_P1;SDS_P2;PMS_P1;PMS_P2;Temp;Humidity;BMP_temperature;BMP_pressure;BME280_temperature;BME280_humidity;BME280_pressure;Samples;Min_cycle;Max_cycle;Signal;HPM_P1;HPM_P2
2021/12/14 00:00:04;;;;;;;17.35;11.40;;;;;;;;;;5075091;28;20063;-83
2021/12/14 00:02:30;;;;;;;18.80;10.57;;;;;;;;;;5075000;28;20020;-83
2021/12/14 00:04:59;;;;;;;15.85;8.98;;;;;;;;;;5072849;28;20041;-82
2021/12/14 00:07:25;;;;;;;13.95;9.57;;;;;;;;;;5072593;28;20028;-83
2021/12/14 00:09:58;;;;;;;17.98;10.75;;;;;;;;;;5074460;28;20174;-83
2021/12/14 00:12:43;;;;;;;15.52;8.73;;;;;;;;;;5073334;28;20507;-83
2021/12/14 00:15:11;;;;;;;15.85;9.07;;;;;;;;;;5073515;28;20474;-83
2021/12/14 00:17:37;;;;;;;11.00;7.88;;;;;;;;;;5072495;28;20048;-84
2021/12/14 00:20:06;;;;;;;17.02;10.18;;;;;;;;;;5074235;28;20485;-83
2021/12/14 00:24:06;;;;;;;14.95;9.63;;;;;;;;;;5075956;28;20382;-85
2021/12/14 00:25:31;;;;;;;19.50;9.35;;;;;;;;;;5075784;28;20070;-84
2021/12/14 00:27:58;;;;;;;13.18;8.30;;;;;;;;;;5075744;28;20029;-85
2021/12/14 00:30:24;;;;;;;13.48;8.93;;;;;;;;;;5078473;28;20024;-84
2021/12/14 00:32:50;;;;;;;10.65;7.60;;;;;;;;;;5083603;28;20028;-83
2021/12/14 00:35:16;;;;;;;11.70;8.35;;;;;;;;;;5074269;28;20045;-85
2021/12/14 00:37:47;;;;;;;13.95;8.70;;;;;;;;;;5074031;28;20028;-83
2021/12/14 00:40:19;;;;;;;12.20;8.35;;;;;;;;;;5074278;28;20547;-84
2021/12/14 00:42:45;;;;;;;14.25;8.20;;;;;;;;;;5076031;28;20107;-86
2021/12/14 00:45:12;;;;;;;12.55;8.18;;;;;;;;;;5085512;28;20031;-83
2021/12/14 00:47:38;;;;;;;17.67;9.18;;;;;;;;;;5080677;28;20027;-86
2021/12/14 00:50:04;;;;;;;17.63;10.40;;;;;;;;;;5075038;28;20397;-84
2021/12/14 00:52:31;;;;;;;15.25;8.52;;;;;;;;;;5082551;28;20021;-84
2021/12/14 00:54:57;;;;;;;14.85;9.18;;;;;;;;;;5088416;28;20051;-86
2021/12/14 00:57:23;;;;;;;13.07;8.15;;;;;;;;;;5077120;28;20025;-85
2021/12/14 00:59:49;;;;;;;13.88;8.13;;;;;;;;;;5075966;28;20039;-86
2021/12/14 01:02:22;;;;;;;18.08;10.15;;;;;;;;;;5075844;28;20056;-85
2021/12/14 01:04:50;;;;;;;14.50;9.73;;;;;;;;;;5075360;28;20481;-84
2021/12/14 01:07:17;;;;;;;13.93;8.52;;;;;;;;;;5076191;28;20505;-85
2021/12/14 01:09:50;;;;;;;17.40;8.88;;;;;;;;;;5074225;28;20032;-84
2021/12/14 01:12:25;;;;;;;17.17;9.00;;;;;;;;;;5075727;28;20489;-83
2021/12/14 01:17:54;;;;;;;17.08;9.65;;;;;;;;;;5075301;28;20174;-84
2021/12/14 01:20:29;;;;;;;23.95;10.00;;;;;;;;;;5074156;28;20508;-82
2021/12/14 01:23:00;;;;;;;18.42;11.43;;;;;;;;;;5075352;28;20028;-83
2021/12/14 01:25:30;;;;;;;21.05;11.48;;;;;;;;;;5074910;28;20042;-83
2021/12/14 01:28:01;;;;;;;17.85;9.68;;;;;;;;;;5074288;28;20036;-84
2021/12/14 01:31:23;;;;;;;16.13;9.65;;;;;;;;;;5076493;28;20028;-85
2021/12/14 01:33:46;;;;;;;17.45;10.27;;;;;;;;;;5073155;28;20035;-86
2021/12/14 01:41:43;;;;;;;20.30;11.55;;;;;;;;;;5075294;28;20483;-82
2021/12/14 01:44:10;;;;;;;18.20;10.95;;;;;;;;;;5074159;28;20025;-82
2021/12/14 01:46:36;;;;;;;22.35;12.35;;;;;;;;;;5081743;28;20027;-82
2021/12/14 01:49:06;;;;;;;18.55;11.45;;;;;;;;;;5074617;28;20545;-83
2021/12/14 01:51:33;;;;;;;27.23;11.95;;;;;;;;;;5075417;28;20041;-83
2021/12/14 01:54:01;;;;;;;19.77;11.60;;;;;;;;;;5073901;28;20032;-82
2021/12/14 01:56:29;;;;;;;25.35;12.18;;;;;;;;;;5074611;28;20024;-83
2021/12/14 01:58:57;;;;;;;21.65;11.80;;;;;;;;;;5072963;28;20020;-82
2021/12/14 02:01:25;;;;;;;18.08;11.27;;;;;;;;;;5073716;28;20032;-82
2021/12/14 02:03:53;;;;;;;23.50;10.20;;;;;;;;;;5074824;28;20496;-83
2021/12/14 02:06:32;;;;;;;29.55;11.32;;;;;;;;;;5074749;28;20063;-82
2021/12/14 02:09:00;;;;;;;32.15;11.75;;;;;;;;;;5073913;28;20400;-81
2021/12/14 02:11:30;;;;;;;45.45;11.32;;;;;;;;;;5075379;28;20029;-81
2021/12/14 02:13:56;;;;;;;34.43;12.33;;;;;;;;;;5073700;28;20016;-83
2021/12/14 02:16:22;;;;;;;70.60;13.25;;;;;;;;;;5074952;28;20111;-81
2021/12/14 02:18:50;;;;;;;70.30;12.25;;;;;;;;;;5075172;28;20116;-84
2021/12/14 02:21:17;;;;;;;58.15;12.40;;;;;;;;;;5073841;28;20501;-83
2021/12/14 02:23:45;;;;;;;33.75;11.80;;;;;;;;;;5073128;28;20131;-82
2021/12/14 02:26:13;;;;;;;22.88;11.55;;;;;;;;;;5075093;28;20024;-83
2021/12/14 02:28:39;;;;;;;18.65;10.45;;;;;;;;;;5073714;28;20025;-83
2021/12/14 02:31:07;;;;;;;40.97;10.32;;;;;;;;;;5082211;28;20027;-82
2021/12/14 02:33:35;;;;;;;26.30;9.88;;;;;;;;;;5075379;28;20078;-82
2021/12/14 02:36:03;;;;;;;24.02;9.77;;;;;;;;;;5074179;28;20090;-82
2021/12/14 02:38:29;;;;;;;22.25;10.55;;;;;;;;;;5075772;28;20047;-82
2021/12/14 02:41:01;;;;;;;25.77;11.82;;;;;;;;;;5077940;28;20515;-82
2021/12/14 02:43:27;;;;;;;23.92;11.15;;;;;;;;;;5077893;28;20029;-82
2021/12/14 02:46:00;;;;;;;22.08;11.77;;;;;;;;;;5077871;28;20035;-83
2021/12/14 02:48:26;;;;;;;27.05;11.95;;;;;;;;;;5076755;28;20031;-83
2021/12/14 02:50:52;;;;;;;20.85;11.93;;;;;;;;;;5077558;28;20028;-82
2021/12/14 02:53:18;;;;;;;29.35;10.13;;;;;;;;;;5088091;28;20028;-82
2021/12/14 02:55:44;;;;;;;40.70;12.68;;;;;;;;;;5068160;28;20028;-85
2021/12/14 02:58:10;;;;;;;33.90;10.88;;;;;;;;;;5077450;28;20500;-83
2021/12/14 03:00:40;;;;;;;19.55;9.73;;;;;;;;;;5079366;28;20035;-84
2021/12/14 03:03:06;;;;;;;20.40;9.93;;;;;;;;;;5079429;28;20489;-84
2021/12/14 03:05:37;;;;;;;39.72;11.82;;;;;;;;;;5079342;28;20040;-84
2021/12/14 03:08:10;;;;;;;75.22;12.02;;;;;;;;;;5078179;28;20028;-82
2021/12/14 03:10:52;;;;;;;33.55;11.70;;;;;;;;;;5078664;28;20036;-85
2021/12/14 03:13:18;;;;;;;30.88;10.82;;;;;;;;;;5077943;28;20025;-84
2021/12/14 03:15:52;;;;;;;63.17;11.70;;;;;;;;;;5076629;28;20489;-82
2021/12/14 03:18:38;;;;;;;53.78;11.70;;;;;;;;;;5077408;28;20758;-84
2021/12/14 03:21:06;;;;;;;59.00;11.10;;;;;;;;;;5077963;28;20033;-86
2021/12/14 03:23:39;;;;;;;43.72;12.25;;;;;;;;;;5075881;28;20027;-85
2021/12/14 03:26:07;;;;;;;58.53;11.93;;;;;;;;;;5078160;28;20020;-85
2021/12/14 03:28:34;;;;;;;26.27;10.85;;;;;;;;;;5078055;28;20040;-83
2021/12/14 03:31:19;;;;;;;56.22;12.05;;;;;;;;;;5083440;28;20024;-82
2021/12/14 03:33:47;;;;;;;157.13;13.00;;;;;;;;;;5079656;28;20489;-83
2021/12/14 03:36:16;;;;;;;89.88;12.68;;;;;;;;;;5076210;28;20028;-84
2021/12/14 03:38:48;;;;;;;112.07;11.80;;;;;;;;;;5077188;28;20070;-84
2021/12/14 03:41:14;;;;;;;142.05;11.77;;;;;;;;;;5078166;28;20436;-82
2021/12/14 03:43:42;;;;;;;53.22;10.32;;;;;;;;;;5077200;28;20050;-83
2021/12/14 03:46:09;;;;;;;24.80;9.45;;;;;;;;;;5096589;28;20061;-82
2021/12/14 03:48:37;;;;;;;36.83;10.43;;;;;;;;;;5082120;28;20032;-85
2021/12/14 03:51:03;;;;;;;121.53;11.32;;;;;;;;;;5077837;28;20090;-83
2021/12/14 03:53:29;;;;;;;184.77;12.02;;;;;;;;;;5075650;28;20114;-83
2021/12/14 03:55:58;;;;;;;169.50;12.00;;;;;;;;;;5075511;28;20539;-88
2021/12/14 03:58:30;;;;;;;55.08;11.82;;;;;;;;;;5076812;28;20094;-83
2021/12/14 04:00:58;;;;;;;43.92;9.38;;;;;;;;;;5077307;28;20024;-83
2021/12/14 04:03:25;;;;;;;23.45;10.57;;;;;;;;;;5075182;28;20035;-83
2021/12/14 04:05:51;;;;;;;75.32;9.85;;;;;;;;;;5076596;28;20024;-82
2021/12/14 04:08:17;;;;;;;112.50;10.05;;;;;;;;;;5075132;28;20024;-84
2021/12/14 04:10:45;;;;;;;70.55;10.50;;;;;;;;;;5075381;28;20389;-82
2021/12/14 04:13:16;;;;;;;121.38;11.02;;;;;;;;;;5075097;28;20025;-84
2021/12/14 04:15:43;;;;;;;202.60;11.48;;;;;;;;;;5077070;28;20020;-82
2021/12/14 04:18:09;;;;;;;92.55;9.50;;;;;;;;;;5076600;28;20086;-83
2021/12/14 04:20:36;;;;;;;115.93;10.32;;;;;;;;;;5076812;28;20024;-82
2021/12/14 04:23:04;;;;;;;152.43;10.38;;;;;;;;;;5076707;28;20031;-84
2021/12/14 04:25:33;;;;;;;157.07;11.20;;;;;;;;;;5076220;28;20025;-84
2021/12/14 04:28:00;;;;;;;153.35;11.23;;;;;;;;;;5076200;28;20025;-84
2021/12/14 04:30:27;;;;;;;89.53;9.88;;;;;;;;;;5077659;28;20096;-84
2021/12/14 04:32:55;;;;;;;131.88;9.80;;;;;;;;;;5095202;28;20541;-83
2021/12/14 04:35:21;;;;;;;50.85;9.68;;;;;;;;;;5078288;28;20029;-85
2021/12/14 04:37:48;;;;;;;36.78;10.27;;;;;;;;;;5076844;28;20029;-86
2021/12/14 04:54:18;;;;;;;143.85;9.48;;;;;;;;;;5090178;28;20069;-85
2021/12/14 04:56:46;;;;;;;133.95;10.00;;;;;;;;;;5076310;28;20120;-85
2021/12/14 04:59:17;;;;;;;104.07;8.75;;;;;;;;;;5090296;28;20119;-85
2021/12/14 05:01:45;;;;;;;45.45;7.80;;;;;;;;;;5095963;28;20477;-86
2021/12/14 05:04:28;;;;;;;93.32;9.55;;;;;;;;;;5096021;28;20116;-83
2021/12/14 05:07:03;;;;;;;166.70;10.02;;;;;;;;;;5090368;28;20055;-85
2021/12/14 05:09:42;;;;;;;172.50;11.30;;;;;;;;;;5096877;28;20059;-84
2021/12/14 05:12:16;;;;;;;90.85;8.68;;;;;;;;;;5097118;28;20469;-84
2021/12/14 05:14:44;;;;;;;50.97;8.27;;;;;;;;;;5094321;28;20023;-84
2021/12/14 05:17:12;;;;;;;183.25;11.40;;;;;;;;;;5075837;28;20028;-85
2021/12/14 05:19:39;;;;;;;41.15;8.63;;;;;;;;;;5074619;28;20033;-86
2021/12/14 05:22:09;;;;;;;150.35;9.95;;;;;;;;;;5073093;28;20037;-85
2021/12/14 05:24:37;;;;;;;204.35;10.73;;;;;;;;;;5074570;28;20032;-85
2021/12/14 05:27:05;;;;;;;121.22;10.07;;;;;;;;;;5074286;28;20024;-84
2021/12/14 05:29:32;;;;;;;217.80;11.63;;;;;;;;;;5076003;28;20023;-85
2021/12/14 05:31:59;;;;;;;119.68;10.48;;;;;;;;;;5090059;28;20024;-85
2021/12/14 05:34:26;;;;;;;75.07;8.75;;;;;;;;;;5091912;28;20017;-83
2021/12/14 05:36:52;;;;;;;197.30;10.68;;;;;;;;;;5091435;22;20032;-84
2021/12/14 05:44:21;;;;;;;95.80;8.88;;;;;;;;;;5073573;28;20481;-83
2021/12/14 05:46:52;;;;;;;103.13;8.52;;;;;;;;;;5073213;28;20021;-83
2021/12/14 05:49:23;;;;;;;109.90;8.80;;;;;;;;;;5093666;28;20047;-85
2021/12/14 05:51:50;;;;;;;115.20;8.68;;;;;;;;;;5110860;28;20037;-85
2021/12/14 05:54:20;;;;;;;84.10;9.48;;;;;;;;;;5072216;28;20040;-84
2021/12/14 05:56:46;;;;;;;21.92;7.38;;;;;;;;;;5073378;28;20029;-84
2021/12/14 05:59:16;;;;;;;127.00;9.25;;;;;;;;;;5085222;28;20497;-84
2021/12/14 06:01:42;;;;;;;58.17;8.75;;;;;;;;;;5069840;28;20035;-84
2021/12/14 06:04:10;;;;;;;35.72;9.02;;;;;;;;;;5051907;28;20029;-84
2021/12/14 06:06:39;;;;;;;143.07;10.32;;;;;;;;;;5087314;28;20048;-84
2021/12/14 06:09:08;;;;;;;72.93;10.07;;;;;;;;;;5053235;28;20074;-85
2021/12/14 06:11:34;;;;;;;127.53;9.60;;;;;;;;;;5072088;28;20031;-84
2021/12/14 06:14:00;;;;;;;118.85;9.88;;;;;;;;;;5075121;28;20405;-86
2021/12/14 06:16:26;;;;;;;76.15;9.85;;;;;;;;;;5057298;28;20374;-84
2021/12/14 06:18:53;;;;;;;86.05;10.43;;;;;;;;;;5076118;28;20021;-84
2021/12/14 06:21:29;;;;;;;41.50;9.50;;;;;;;;;;5058469;28;20475;-83
2021/12/14 06:24:03;;;;;;;28.52;8.13;;;;;;;;;;5083491;28;20050;-83
2021/12/14 06:26:33;;;;;;;63.58;9.77;;;;;;;;;;5081700;28;20029;-85
2021/12/14 06:29:06;;;;;;;61.03;9.48;;;;;;;;;;5102063;28;20037;-85
2021/12/14 06:31:32;;;;;;;29.13;10.32;;;;;;;;;;5059137;28;20067;-86
2021/12/14 06:34:10;;;;;;;96.80;10.63;;;;;;;;;;5077796;28;20027;-85
2021/12/14 06:37:04;;;;;;;39.92;11.10;;;;;;;;;;5091815;28;20025;-85
2021/12/14 06:39:53;;;;;;;28.10;10.32;;;;;;;;;;5067080;28;20044;-85
2021/12/14 06:42:19;;;;;;;62.53;10.23;;;;;;;;;;5092515;28;20075;-85
2021/12/14 06:44:45;;;;;;;32.63;10.68;;;;;;;;;;5091533;28;20033;-85
2021/12/14 06:47:11;;;;;;;28.50;9.85;;;;;;;;;;5075559;28;20116;-85
2021/12/14 06:49:37;;;;;;;38.85;11.18;;;;;;;;;;5076112;28;20041;-85
2021/12/14 06:52:03;;;;;;;33.70;10.05;;;;;;;;;;5076376;28;20052;-85
2021/12/14 06:54:30;;;;;;;35.35;10.23;;;;;;;;;;5076522;28;20192;-85
2021/12/14 06:57:01;;;;;;;32.35;9.75;;;;;;;;;;5077599;28;20075;-84
2021/12/14 06:59:28;;;;;;;38.70;9.32;;;;;;;;;;5075286;28;20107;-84
2021/12/14 07:01:53;;;;;;;67.50;11.35;;;;;;;;;;5075879;28;20047;-85
2021/12/14 07:04:21;;;;;;;48.08;10.90;;;;;;;;;;5057218;28;20024;-85
2021/12/14 07:06:49;;;;;;;48.88;11.10;;;;;;;;;;5075625;28;20021;-85
2021/12/14 07:09:20;;;;;;;50.25;11.23;;;;;;;;;;5074863;28;20032;-86
2021/12/14 07:11:47;;;;;;;;;;;;;;;;;;5057207;28;20074;-84
2021/12/14 07:14:29;;;;;;;50.50;11.05;;;;;;;;;;5079037;28;19916;-85
2021/12/14 07:16:56;;;;;;;44.72;11.20;;;;;;;;;;5076642;28;20028;-85
2021/12/14 07:19:41;;;;;;;150.85;12.95;;;;;;;;;;5060402;28;20115;-85
2021/12/14 07:22:12;;;;;;;30.73;10.95;;;;;;;;;;5054033;28;20487;-86
2021/12/14 07:24:38;;;;;;;39.00;10.75;;;;;;;;;;5082085;28;20025;-84
2021/12/14 07:27:16;;;;;;;37.95;11.88;;;;;;;;;;5046867;28;20280;-85
2021/12/14 07:29:43;;;;;;;62.30;10.38;;;;;;;;;;5066964;28;20461;-85
2021/12/14 07:32:09;;;;;;;57.78;12.13;;;;;;;;;;5084310;28;20016;-84
2021/12/14 07:34:35;;;;;;;45.13;12.60;;;;;;;;;;5067389;28;20538;-85
2021/12/14 07:37:01;;;;;;;46.08;13.02;;;;;;;;;;5054757;28;20108;-85
2021/12/14 07:39:28;;;;;;;67.75;13.90;;;;;;;;;;5053059;28;20052;-85
2021/12/14 07:41:55;;;;;;;57.58;13.27;;;;;;;;;;5069629;28;20095;-85
2021/12/14 07:44:26;;;;;;;44.20;13.55;;;;;;;;;;5062317;28;20060;-84
2021/12/14 07:46:55;;;;;;;78.88;14.30;;;;;;;;;;5058995;28;20103;-85
2021/12/14 07:49:24;;;;;;;104.82;13.95;;;;;;;;;;5064108;28;20051;-84
2021/12/14 07:51:52;;;;;;;55.95;12.85;;;;;;;;;;5074980;28;20043;-85
2021/12/14 07:54:32;;;;;;;42.35;13.13;;;;;;;;;;5091755;28;20540;-84
2021/12/14 07:56:59;;;;;;;72.80;14.70;;;;;;;;;;5068079;28;20017;-84
2021/12/14 07:59:32;;;;;;;66.28;14.45;;;;;;;;;;5071873;28;20029;-84
2021/12/14 08:02:09;;;;;;;56.25;15.30;;;;;;;;;;5056657;28;20166;-85
2021/12/14 08:04:36;;;;;;;79.65;13.63;;;;;;;;;;5038149;28;20134;-84
2021/12/14 08:07:03;;;;;;;75.82;14.27;;;;;;;;;;5036614;28;20115;-85
2021/12/14 08:09:44;;;;;;;64.53;12.50;;;;;;;;;;5056398;28;20029;-85
2021/12/14 08:12:10;;;;;;;72.25;14.88;;;;;;;;;;5055731;28;20386;-85
2021/12/14 08:14:36;;;;;;;67.25;14.43;;;;;;;;;;5054951;28;20029;-85
2021/12/14 08:17:07;;;;;;;43.42;13.20;;;;;;;;;;5057004;28;20616;-84
2021/12/14 08:19:33;;;;;;;;;;;;;;;;;;5061709;28;20052;-85
2021/12/14 08:22:01;;;;;;;55.28;13.55;;;;;;;;;;5054303;28;19934;-85
2021/12/14 08:24:27;;;;;;;50.95;14.23;;;;;;;;;;5059250;28;20029;-85
2021/12/14 08:26:55;;;;;;;151.60;13.80;;;;;;;;;;5072304;28;20477;-85
2021/12/14 08:29:32;;;;;;;56.72;11.98;;;;;;;;;;5075467;28;20025;-85
2021/12/14 08:32:12;;;;;;;68.45;13.75;;;;;;;;;;5057961;28;20103;-85
2021/12/14 08:34:41;;;;;;;73.43;13.77;;;;;;;;;;5092088;28;20043;-84
2021/12/14 08:37:09;;;;;;;100.22;15.20;;;;;;;;;;5090004;28;20028;-85
2021/12/14 08:39:42;;;;;;;85.88;15.02;;;;;;;;;;5089845;28;20025;-85
2021/12/14 08:42:13;;;;;;;75.80;14.30;;;;;;;;;;5073941;28;20354;-85
2021/12/14 08:44:41;;;;;;;113.72;14.63;;;;;;;;;;5056917;28;20098;-85
2021/12/14 08:47:13;;;;;;;88.20;13.30;;;;;;;;;;5055734;28;20024;-85
2021/12/14 08:49:39;;;;;;;92.57;13.90;;;;;;;;;;5074651;28;20032;-85
2021/12/14 08:52:06;;;;;;;49.55;13.63;;;;;;;;;;5089288;28;20443;-85
2021/12/14 08:54:33;;;;;;;69.85;14.00;;;;;;;;;;5075472;28;20029;-85
2021/12/14 08:57:13;;;;;;;46.30;13.60;;;;;;;;;;5056965;28;20036;-85
2021/12/14 08:59:41;;;;;;;38.50;11.80;;;;;;;;;;5091696;28;20017;-85
2021/12/14 09:02:08;;;;;;;31.42;13.13;;;;;;;;;;5077227;28;20025;-85
2021/12/14 09:04:36;;;;;;;47.28;11.80;;;;;;;;;;5068109;28;20062;-85
2021/12/14 09:07:06;;;;;;;52.47;10.77;;;;;;;;;;5075836;28;20074;-85
2021/12/14 09:09:32;;;;;;;35.05;10.23;;;;;;;;;;5076110;28;20046;-85
2021/12/14 09:12:03;;;;;;;43.28;11.52;;;;;;;;;;5057361;28;20025;-84
2021/12/14 09:14:29;;;;;;;42.15;11.45;;;;;;;;;;5074414;28;20040;-85
2021/12/14 09:16:57;;;;;;;38.22;11.48;;;;;;;;;;5076266;28;20039;-85
2021/12/14 09:19:43;;;;;;;50.65;12.57;;;;;;;;;;5075405;28;20050;-85
2021/12/14 09:22:12;;;;;;;34.63;11.15;;;;;;;;;;5075183;28;20048;-85
2021/12/14 09:24:38;;;;;;;40.20;10.93;;;;;;;;;;5075336;28;20033;-85
2021/12/14 09:27:06;;;;;;;28.02;9.45;;;;;;;;;;5057821;28;20032;-85
2021/12/14 09:29:33;;;;;;;28.23;11.27;;;;;;;;;;5078137;28;20112;-85
2021/12/14 09:32:00;;;;;;;65.18;11.82;;;;;;;;;;5056599;28;20052;-84
2021/12/14 09:34:27;;;;;;;41.72;11.43;;;;;;;;;;5050751;28;20033;-85
2021/12/14 09:36:53;;;;;;;54.33;11.60;;;;;;;;;;5073552;28;20024;-85
2021/12/14 09:39:29;;;;;;;31.85;11.07;;;;;;;;;;5051034;28;20094;-85
2021/12/14 09:41:56;;;;;;;31.85;10.38;;;;;;;;;;5087352;28;20036;-85
2021/12/14 09:44:24;;;;;;;72.35;10.82;;;;;;;;;;5053298;28;20032;-84
2021/12/14 09:46:51;;;;;;;43.20;11.05;;;;;;;;;;5089226;28;20021;-84
2021/12/14 09:49:17;;;;;;;32.13;12.93;;;;;;;;;;5075907;28;20021;-84
2021/12/14 09:51:47;;;;;;;24.48;11.70;;;;;;;;;;5075851;28;20033;-84
2021/12/14 09:54:15;;;;;;;93.25;12.30;;;;;;;;;;5076093;28;20377;-86
2021/12/14 09:56:44;;;;;;;25.05;11.35;;;;;;;;;;5058053;28;20116;-84
2021/12/14 09:59:11;;;;;;;32.70;10.50;;;;;;;;;;5057429;28;20020;-85
2021/12/14 10:01:41;;;;;;;33.83;10.07;;;;;;;;;;5075877;28;20028;-87
2021/12/14 10:04:12;;;;;;;31.60;10.13;;;;;;;;;;5058231;28;20450;-87
2021/12/14 10:06:38;;;;;;;;;;;;;;;;;;5058087;28;20259;-85
2021/12/14 10:09:07;;;;;;;30.75;10.52;;;;;;;;;;5057359;28;19911;-85
2021/12/14 10:14:30;;;;;;;34.05;10.77;;;;;;;;;;5045120;28;20044;-86
2021/12/14 10:17:00;;;;;;;31.52;9.10;;;;;;;;;;5081702;28;20043;-86
2021/12/14 10:19:28;;;;;;;37.80;9.88;;;;;;;;;;5067255;28;20132;-85
2021/12/14 10:21:57;;;;;;;31.40;9.55;;;;;;;;;;5079009;28;20433;-85
2021/12/14 10:24:23;;;;;;;23.65;10.18;;;;;;;;;;5077642;28;20044;-85
2021/12/14 10:26:52;;;;;;;29.52;9.15;;;;;;;;;;5078832;28;20050;-85
2021/12/14 10:29:19;;;;;;;24.55;8.63;;;;;;;;;;5081004;28;20025;-85
2021/12/14 10:31:48;;;;;;;30.02;10.02;;;;;;;;;;5076420;28;20024;-85
2021/12/14 10:34:17;;;;;;;40.50;9.52;;;;;;;;;;5057538;28;20035;-84
2021/12/14 10:36:47;;;;;;;30.13;10.00;;;;;;;;;;5057017;28;20447;-84
2021/12/14 10:39:25;;;;;;;17.70;8.10;;;;;;;;;;5056809;28;20032;-85
2021/12/14 10:44:40;;;;;;;24.10;9.40;;;;;;;;;;5075767;28;20032;-85
2021/12/14 10:47:08;;;;;;;28.02;9.23;;;;;;;;;;5074991;28;20008;-85
2021/12/14 10:49:34;;;;;;;24.55;10.30;;;;;;;;;;5056829;28;20090;-85
2021/12/14 10:52:06;;;;;;;32.55;9.55;;;;;;;;;;5075038;28;20032;-85
2021/12/14 10:54:39;;;;;;;22.30;8.82;;;;;;;;;;5058055;28;20092;-85
2021/12/14 10:57:19;;;;;;;27.60;11.00;;;;;;;;;;5088190;28;20117;-84
2021/12/14 10:59:49;;;;;;;40.60;9.18;;;;;;;;;;5055706;28;20060;-84
2021/12/14 11:02:23;;;;;;;20.00;8.82;;;;;;;;;;5075051;28;20485;-84
2021/12/14 11:04:54;;;;;;;20.50;9.90;;;;;;;;;;5074416;28;20047;-84
2021/12/14 11:07:23;;;;;;;30.08;9.10;;;;;;;;;;5074762;28;20070;-84
2021/12/14 11:09:53;;;;;;;24.77;10.30;;;;;;;;;;5057699;28;20498;-84
2021/12/14 11:12:34;;;;;;;26.07;8.97;;;;;;;;;;5056759;28;20029;-85
2021/12/14 11:15:20;;;;;;;23.20;9.68;;;;;;;;;;5056851;28;20028;-84
2021/12/14 11:20:35;;;;;;;22.33;10.02;;;;;;;;;;5075284;28;20130;-85
2021/12/14 11:23:23;;;;;;;26.00;10.52;;;;;;;;;;5057420;28;20029;-85
2021/12/14 11:25:49;;;;;;;24.38;10.20;;;;;;;;;;5055897;28;20114;-85
2021/12/14 11:28:21;;;;;;;26.15;11.80;;;;;;;;;;5077868;28;20005;-86
2021/12/14 11:30:52;;;;;;;25.08;11.57;;;;;;;;;;5093843;28;20044;-86
2021/12/14 11:33:19;;;;;;;;;;;;;;;;;;5077232;28;20022;-85
2021/12/14 11:35:52;;;;;;;25.83;9.90;;;;;;;;;;5091625;28;19923;-85
2021/12/14 11:38:34;;;;;;;23.23;11.50;;;;;;;;;;5093374;28;20162;-87
2021/12/14 11:41:03;;;;;;;23.95;10.93;;;;;;;;;;5097712;28;20046;-88
2021/12/14 11:43:30;;;;;;;25.92;12.23;;;;;;;;;;5106772;28;20040;-86
2021/12/14 11:45:57;;;;;;;24.02;11.52;;;;;;;;;;5097582;28;20009;-87
2021/12/14 11:48:31;;;;;;;28.10;12.68;;;;;;;;;;5114489;28;20489;-87
2021/12/14 11:50:57;;;;;;;24.52;12.43;;;;;;;;;;5079932;28;20043;-89
2021/12/14 11:53:23;;;;;;;24.35;11.85;;;;;;;;;;5076476;28;20028;-88
2021/12/14 11:55:59;;;;;;;34.28;13.23;;;;;;;;;;5112244;28;20063;-87
2021/12/14 11:58:31;;;;;;;30.73;13.25;;;;;;;;;;5097087;28;20054;-86
2021/12/14 12:01:03;;;;;;;22.58;11.45;;;;;;;;;;5079903;28;20082;-85
2021/12/14 12:03:32;;;;;;;29.48;12.95;;;;;;;;;;5089368;28;20029;-86
2021/12/14 12:06:07;;;;;;;25.58;12.85;;;;;;;;;;5056711;28;20112;-86
2021/12/14 12:11:21;;;;;;;29.35;12.75;;;;;;;;;;5075600;28;20101;-84
2021/12/14 12:13:47;;;;;;;34.85;14.10;;;;;;;;;;5073570;28;20032;-84
2021/12/14 12:16:25;;;;;;;25.70;13.35;;;;;;;;;;5073090;28;20028;-84
2021/12/14 12:19:06;;;;;;;26.40;12.68;;;;;;;;;;5073614;28;20435;-85
2021/12/14 12:21:32;;;;;;;;;;;;;;;;;;5082469;28;20028;-86
2021/12/14 12:23:58;;;;;;;31.83;14.60;;;;;;;;;;5067857;28;19935;-85
2021/12/14 12:26:28;;;;;;;27.92;14.23;;;;;;;;;;5072235;28;20040;-86
2021/12/14 12:29:00;;;;;;;34.15;15.13;;;;;;;;;;5090715;28;20021;-86
2021/12/14 12:31:27;;;;;;;58.50;15.38;;;;;;;;;;5070041;28;20028;-86
2021/12/14 12:33:55;;;;;;;35.92;16.25;;;;;;;;;;5067220;28;20024;-86
2021/12/14 12:36:23;;;;;;;34.42;14.98;;;;;;;;;;5066879;28;20029;-85
2021/12/14 12:38:55;;;;;;;41.55;17.23;;;;;;;;;;5082829;28;20029;-87
2021/12/14 12:41:25;;;;;;;34.08;16.42;;;;;;;;;;5079735;28;20056;-87
2021/12/14 12:43:51;;;;;;;35.40;16.05;;;;;;;;;;5079449;28;20029;-87
2021/12/14 12:46:23;;;;;;;34.47;15.43;;;;;;;;;;5092366;28;20307;-87
2021/12/14 12:48:51;;;;;;;31.92;15.15;;;;;;;;;;5095907;28;20016;-87
2021/12/14 12:51:35;;;;;;;35.38;15.38;;;;;;;;;;5091824;28;20025;-88
2021/12/14 12:54:14;;;;;;;30.98;14.63;;;;;;;;;;5079903;28;20032;-88
2021/12/14 12:56:42;;;;;;;31.67;14.50;;;;;;;;;;5097581;28;20097;-90
2021/12/14 12:59:09;;;;;;;37.13;17.30;;;;;;;;;;5097528;28;20036;-88
2021/12/14 13:01:35;;;;;;;32.30;14.75;;;;;;;;;;5097321;28;20012;-88
2021/12/14 13:04:02;;;;;;;30.27;14.88;;;;;;;;;;5080751;28;20025;-87
2021/12/14 13:06:28;;;;;;;33.00;15.55;;;;;;;;;;5097733;28;20035;-89
2021/12/14 13:08:58;;;;;;;33.15;16.23;;;;;;;;;;5097986;28;20017;-88
2021/12/14 13:11:27;;;;;;;38.85;15.70;;;;;;;;;;5080585;28;20016;-88
2021/12/14 13:14:01;;;;;;;32.83;16.45;;;;;;;;;;5080460;28;20012;-87
2021/12/14 13:16:27;;;;;;;31.75;14.98;;;;;;;;;;5080363;28;20009;-89
2021/12/14 13:18:59;;;;;;;33.60;15.90;;;;;;;;;;5079812;28;20495;-86
2021/12/14 13:21:25;;;;;;;33.70;15.27;;;;;;;;;;5055390;28;20107;-86
2021/12/14 13:24:06;;;;;;;32.22;16.60;;;;;;;;;;5072911;28;20169;-87
2021/12/14 13:26:32;;;;;;;30.35;15.18;;;;;;;;;;5072797;28;20031;-87
2021/12/14 13:29:14;;;;;;;31.83;15.65;;;;;;;;;;5055020;28;20103;-87
2021/12/14 13:31:43;;;;;;;29.15;15.18;;;;;;;;;;5072781;28;20025;-87
2021/12/14 13:34:11;;;;;;;35.83;16.88;;;;;;;;;;5054679;28;20074;-86
2021/12/14 13:36:38;;;;;;;38.63;18.30;;;;;;;;;;5089748;28;20028;-87
2021/12/14 13:39:06;;;;;;;41.63;19.05;;;;;;;;;;5102293;28;20033;-86
2021/12/14 13:42:01;;;;;;;36.03;17.38;;;;;;;;;;5089842;28;20024;-87
2021/12/14 13:44:28;;;;;;;41.05;18.58;;;;;;;;;;5089541;28;20486;-86
2021/12/14 13:46:54;;;;;;;39.55;18.33;;;;;;;;;;5072333;28;20029;-87
2021/12/14 13:49:20;;;;;;;38.97;18.52;;;;;;;;;;5087893;28;20023;-87
2021/12/14 13:51:46;;;;;;;47.45;20.48;;;;;;;;;;5088277;28;20052;-87
2021/12/14 13:54:14;;;;;;;36.65;17.20;;;;;;;;;;5072338;28;20024;-87
2021/12/14 13:56:42;;;;;;;33.35;15.57;;;;;;;;;;5087629;28;20060;-87
2021/12/14 13:59:09;;;;;;;35.42;16.40;;;;;;;;;;5053962;28;20411;-87
2021/12/14 14:01:41;;;;;;;35.47;17.30;;;;;;;;;;5054081;28;20037;-86
2021/12/14 14:04:09;;;;;;;40.55;17.50;;;;;;;;;;5054172;28;20413;-88
2021/12/14 14:06:36;;;;;;;46.80;20.40;;;;;;;;;;5054198;28;20085;-87
2021/12/14 14:09:07;;;;;;;41.25;18.02;;;;;;;;;;5054167;28;20025;-87
2021/12/14 14:11:38;;;;;;;34.85;15.95;;;;;;;;;;5054918;28;20507;-85
2021/12/14 14:14:06;;;;;;;33.97;16.98;;;;;;;;;;5072663;28;20025;-87
2021/12/14 14:16:37;;;;;;;36.80;17.70;;;;;;;;;;5055340;28;20036;-85
2021/12/14 14:19:07;;;;;;;36.70;17.20;;;;;;;;;;5053776;28;20021;-87
2021/12/14 14:21:42;;;;;;;35.63;18.17;;;;;;;;;;5072259;28;20036;-87
2021/12/14 14:24:23;;;;;;;42.97;20.08;;;;;;;;;;5071792;28;20059;-88
2021/12/14 14:26:49;;;;;;;33.60;16.77;;;;;;;;;;5069901;28;20025;-87
2021/12/14 14:29:18;;;;;;;37.65;17.88;;;;;;;;;;5053407;28;20033;-88
2021/12/14 14:31:48;;;;;;;40.90;16.70;;;;;;;;;;5071518;28;20028;-88
2021/12/14 14:34:54;;;;;;;32.95;17.27;;;;;;;;;;5055887;28;20029;-89
2021/12/14 14:37:25;;;;;;;41.90;17.38;;;;;;;;;;5068102;28;20036;-88
2021/12/14 14:40:00;;;;;;;53.38;25.95;;;;;;;;;;5075871;28;20396;-89
2021/12/14 14:42:34;;;;;;;62.05;25.13;;;;;;;;;;5058128;28;20031;-89
2021/12/14 14:45:24;;;;;;;47.03;21.67;;;;;;;;;;5058230;28;20033;-90
2021/12/14 14:47:52;;;;;;;46.05;19.20;;;;;;;;;;5058137;28;20099;-88
2021/12/14 14:50:40;;;;;;;46.45;20.95;;;;;;;;;;5057672;28;20028;-89
2021/12/14 14:53:06;;;;;;;58.30;23.33;;;;;;;;;;5091451;28;20108;-89
2021/12/14 14:55:32;;;;;;;51.45;20.95;;;;;;;;;;5090432;28;20508;-89
2021/12/14 14:58:00;;;;;;;56.08;23.63;;;;;;;;;;5057410;28;20036;-86
2021/12/14 15:00:31;;;;;;;51.50;20.48;;;;;;;;;;5057484;28;20029;-87
2021/12/14 15:03:02;;;;;;;47.05;19.85;;;;;;;;;;5075274;28;20029;-89
2021/12/14 15:05:31;;;;;;;39.97;18.25;;;;;;;;;;5059089;28;20025;-86
2021/12/14 15:08:06;;;;;;;45.30;20.42;;;;;;;;;;5057216;28;20485;-86
2021/12/14 15:10:32;;;;;;;44.80;18.92;;;;;;;;;;5056629;28;20024;-86
2021/12/14 15:13:14;;;;;;;45.00;19.52;;;;;;;;;;5056893;28;20031;-86
2021/12/14 15:15:56;;;;;;;48.50;18.00;;;;;;;;;;5074547;28;20445;-86